createdAt,value
2023-01-12T00:02:22.060Z,36.50
2023-01-12T00:04:50.322Z,40.90
2023-01-12T00:07:20.638Z,41.90
2023-01-12T00:09:49.119Z,43.00
2023-01-12T00:12:17.506Z,40.00
2023-01-12T00:14:45.497Z,40.50
2023-01-12T00:17:17.077Z,72.10
2023-01-12T00:19:45.239Z,49.80
2023-01-12T00:22:15.031Z,68.30
2023-01-12T00:27:19.517Z,68.50
2023-01-12T00:29:51.640Z,58.70
2023-01-12T00:32:21.340Z,50.90
2023-01-12T00:34:49.531Z,50.40
2023-01-12T00:37:19.722Z,40.30
2023-01-12T00:40:01.480Z,54.10
2023-01-12T00:42:49.044Z,45.30
2023-01-12T00:45:23.803Z,50.00
2023-01-12T00:47:53.693Z,46.50
2023-01-12T00:50:22.735Z,40.60
2023-01-12T00:52:50.799Z,49.10
2023-01-12T00:55:19.645Z,42.40
2023-01-12T00:57:48.213Z,46.90
2023-01-12T01:00:17.373Z,49.10
2023-01-12T01:05:14.250Z,46.30
2023-01-12T01:07:42.334Z,48.10
2023-01-12T01:10:13.240Z,46.00
2023-01-12T01:12:42.370Z,48.00
2023-01-12T01:15:11.152Z,45.50
2023-01-12T01:17:39.414Z,46.90
2023-01-12T01:20:08.447Z,42.50
2023-01-12T01:22:36.594Z,43.80
2023-01-12T01:25:05.385Z,44.80
2023-01-12T01:27:33.553Z,45.00
2023-01-12T01:30:01.648Z,48.50
2023-01-12T01:32:29.772Z,43.90
2023-01-12T01:34:57.864Z,47.60
2023-01-12T01:37:26.145Z,46.10
2023-01-12T01:39:55.229Z,48.00
2023-01-12T01:42:30.588Z,53.60
2023-01-12T01:45:07.456Z,45.30
2023-01-12T01:47:43.405Z,45.20
2023-01-12T01:50:23.240Z,38.50
2023-01-12T01:53:04.950Z,51.60
2023-01-12T01:55:42.247Z,53.30
2023-01-12T01:58:15.869Z,54.70
2023-01-12T02:00:45.162Z,56.80
2023-01-12T02:03:15.967Z,58.20
2023-01-12T02:05:47.348Z,55.00
2023-01-12T02:08:45.482Z,52.40
2023-01-12T02:11:32.915Z,61.40
2023-01-12T02:14:19.848Z,57.50
2023-01-12T02:17:22.924Z,43.80
2023-01-12T02:20:07.491Z,55.20
2023-01-12T02:22:49.059Z,49.40
2023-01-12T02:25:35.670Z,58.10
2023-01-12T02:28:28.341Z,52.10
2023-01-12T02:31:27.853Z,56.10
2023-01-12T02:36:52.228Z,49.10
2023-01-12T02:39:23.044Z,53.20
2023-01-12T02:42:15.497Z,56.80
2023-01-12T02:45:15.717Z,55.40
2023-01-12T02:48:22.546Z,61.20
2023-01-12T02:51:09.612Z,61.70
2023-01-12T02:53:47.574Z,49.00
2023-01-12T02:56:49.185Z,56.70
2023-01-12T02:59:24.883Z,49.40
2023-01-12T03:01:57.802Z,44.60
2023-01-12T03:04:27.855Z,44.60
2023-01-12T03:06:55.921Z,44.00
2023-01-12T03:09:44.512Z,44.40
2023-01-12T03:12:23.349Z,44.10
2023-01-12T03:14:55.581Z,41.40
2023-01-12T03:17:54.939Z,51.70
2023-01-12T03:20:31.255Z,52.60
2023-01-12T03:23:05.364Z,46.10
2023-01-12T03:25:34.771Z,54.30
2023-01-12T03:28:07.493Z,49.60
2023-01-12T03:30:39.099Z,49.60
2023-01-12T03:33:08.629Z,45.40
2023-01-12T03:35:49.415Z,46.00
2023-01-12T03:38:31.307Z,45.50
2023-01-12T03:41:12.998Z,43.40
2023-01-12T03:43:49.981Z,45.00
2023-01-12T03:46:30.787Z,36.70
2023-01-12T03:49:25.168Z,34.70
2023-01-12T03:51:55.919Z,36.80
2023-01-12T03:54:26.226Z,33.70
2023-01-12T03:56:55.164Z,37.20
2023-01-12T03:59:23.974Z,41.20
2023-01-12T04:01:52.355Z,46.60
2023-01-12T04:04:22.054Z,33.40
2023-01-12T04:06:50.335Z,42.10
2023-01-12T04:09:18.534Z,41.50
2023-01-12T04:12:05.072Z,39.70
2023-01-12T04:14:33.079Z,41.50
2023-01-12T04:17:01.120Z,39.10
2023-01-12T04:19:29.143Z,33.80
2023-01-12T04:22:16.552Z,30.40
2023-01-12T04:24:44.930Z,30.60
2023-01-12T04:27:12.990Z,33.30
2023-01-12T04:29:41.366Z,31.20
2023-01-12T04:32:09.744Z,35.50
2023-01-12T04:34:39.625Z,31.70
2023-01-12T04:37:07.667Z,27.00
2023-01-12T04:39:35.698Z,28.40
2023-01-12T04:42:04.203Z,28.80
2023-01-12T04:44:32.598Z,28.40
2023-01-12T04:47:00.628Z,25.20
2023-01-12T04:49:28.689Z,26.10
2023-01-12T04:51:56.762Z,26.90
2023-01-12T04:54:24.876Z,27.50
2023-01-12T04:56:52.875Z,28.30
2023-01-12T04:59:20.908Z,30.20
2023-01-12T05:01:49.507Z,22.30
2023-01-12T05:04:17.923Z,25.00
2023-01-12T05:06:46.295Z,27.50
2023-01-12T05:09:32.810Z,26.50
2023-01-12T05:12:01.245Z,30.90
2023-01-12T05:14:29.460Z,29.50
2023-01-12T05:16:59.683Z,31.00
2023-01-12T05:19:27.755Z,30.80
2023-01-12T05:21:55.769Z,29.80
2023-01-12T05:24:23.902Z,27.70
2023-01-12T05:26:52.076Z,28.40
2023-01-12T05:29:20.146Z,29.30
2023-01-12T05:31:48.461Z,29.90
2023-01-12T05:34:19.558Z,28.10
2023-01-12T05:36:48.369Z,31.70
2023-01-12T05:39:16.384Z,28.60
2023-01-12T05:42:03.246Z,32.00
2023-01-12T05:44:31.301Z,37.90
2023-01-12T05:46:59.533Z,34.40
2023-01-12T05:49:27.605Z,35.30
2023-01-12T05:51:55.634Z,36.00
2023-01-12T05:54:24.390Z,31.70
2023-01-12T05:56:52.885Z,31.50
2023-01-12T05:59:21.251Z,41.60
2023-01-12T06:01:49.320Z,34.00
2023-01-12T06:04:17.361Z,33.40
2023-01-12T06:06:46.620Z,38.30
2023-01-12T06:12:01.488Z,38.90
2023-01-12T06:14:30.294Z,38.20
2023-01-12T06:16:58.428Z,39.10
2023-01-12T06:19:26.494Z,37.30
2023-01-12T06:21:55.400Z,36.60
2023-01-12T06:24:24.432Z,34.20
2023-01-12T06:26:56.752Z,33.20
2023-01-12T06:29:25.169Z,37.40
2023-01-12T06:31:53.516Z,41.30
2023-01-12T06:34:22.009Z,36.50
2023-01-12T06:36:50.113Z,31.90
2023-01-12T06:39:18.166Z,26.00
2023-01-12T06:42:04.995Z,26.70
2023-01-12T06:44:33.028Z,47.00
2023-01-12T06:47:04.239Z,51.40
2023-01-12T06:49:32.451Z,46.40
2023-01-12T06:52:00.549Z,45.00
2023-01-12T06:54:28.670Z,59.20
2023-01-12T06:56:56.966Z,56.70
2023-01-12T06:59:25.118Z,48.20
2023-01-12T07:01:53.693Z,35.20
2023-01-12T07:04:22.302Z,43.80
2023-01-12T07:06:54.885Z,32.80
2023-01-12T07:09:23.132Z,32.70
2023-01-12T07:11:51.263Z,33.60
2023-01-12T07:14:19.328Z,25.00
2023-01-12T07:16:47.552Z,26.20
2023-01-12T07:19:15.750Z,23.40
2023-01-12T07:21:46.658Z,20.60
2023-01-12T07:24:14.867Z,20.20
2023-01-12T07:26:43.106Z,22.10
2023-01-12T07:29:11.616Z,21.10
2023-01-12T07:31:39.756Z,18.00
2023-01-12T07:34:07.788Z,19.60
2023-01-12T07:36:36.043Z,22.80
2023-01-12T07:39:04.425Z,21.30
2023-01-12T07:41:51.092Z,21.50
2023-01-12T07:44:19.466Z,31.20
2023-01-12T07:46:47.597Z,28.50
2023-01-12T07:49:15.916Z,28.60
2023-01-12T07:51:44.087Z,25.90
2023-01-12T07:54:12.233Z,29.00
2023-01-12T07:56:44.270Z,27.20
2023-01-12T07:59:12.473Z,23.40
2023-01-12T08:01:41.621Z,29.20
2023-01-12T08:04:09.814Z,35.60
2023-01-12T08:06:38.144Z,30.70
2023-01-12T08:09:06.571Z,26.10
2023-01-12T08:11:34.649Z,36.40
2023-01-12T08:14:04.908Z,30.90
2023-01-12T08:16:40.891Z,27.50
2023-01-12T08:19:16.763Z,26.30
2023-01-12T08:22:00.044Z,29.90
2023-01-12T08:24:36.839Z,27.00
2023-01-12T08:27:07.417Z,31.30
2023-01-12T08:29:44.023Z,29.20
2023-01-12T08:32:14.017Z,28.70
2023-01-12T08:34:44.384Z,24.10
2023-01-12T08:37:16.557Z,24.50
2023-01-12T08:39:46.158Z,21.00
2023-01-12T08:42:14.475Z,19.20
2023-01-12T08:44:43.135Z,22.40
2023-01-12T08:47:30.587Z,22.00
2023-01-12T08:50:00.569Z,22.90
2023-01-12T08:52:33.074Z,24.20
2023-01-12T08:55:01.689Z,29.10
2023-01-12T08:57:30.182Z,19.80
2023-01-12T08:59:58.242Z,23.70
2023-01-12T09:02:27.448Z,24.40
2023-01-12T09:07:24.093Z,18.30
2023-01-12T09:09:52.156Z,18.70
2023-01-12T09:12:20.351Z,18.90
2023-01-12T09:14:48.517Z,26.40
2023-01-12T09:17:16.880Z,25.00
2023-01-12T09:19:45.777Z,24.90
2023-01-12T09:22:13.718Z,27.10
2023-01-12T09:24:42.219Z,20.90
2023-01-12T09:27:10.789Z,24.90
2023-01-12T09:29:38.837Z,23.90
2023-01-12T09:32:07.048Z,21.40
2023-01-12T09:34:35.291Z,25.20
2023-01-12T09:37:03.599Z,20.90
2023-01-12T09:39:31.709Z,19.20
2023-01-12T09:42:28.897Z,19.60
2023-01-12T09:45:15.745Z,25.10
2023-01-12T09:47:53.772Z,33.40
2023-01-12T09:50:39.594Z,25.90
2023-01-12T09:53:14.941Z,17.20
2023-01-12T09:56:01.794Z,16.40
2023-01-12T09:59:11.619Z,12.70
2023-01-12T10:01:39.887Z,13.70
2023-01-12T10:04:08.371Z,14.00
2023-01-12T10:06:36.863Z,15.40
2023-01-12T10:09:10.284Z,14.50
2023-01-12T10:11:57.215Z,15.20
2023-01-12T10:14:34.587Z,15.90
2023-01-12T10:17:20.548Z,15.80
2023-01-12T10:20:18.344Z,18.60
2023-01-12T10:22:58.701Z,18.30
2023-01-12T10:25:37.278Z,18.30
2023-01-12T10:28:26.878Z,19.00
2023-01-12T10:30:56.763Z,19.10
2023-01-12T10:33:33.433Z,17.80
2023-01-12T10:36:09.049Z,18.10
2023-01-12T10:38:39.343Z,16.50
2023-01-12T10:41:18.405Z,19.50
2023-01-12T10:44:07.511Z,19.00
2023-01-12T10:49:19.265Z,20.70
2023-01-12T10:51:53.322Z,24.90
2023-01-12T10:54:31.577Z,21.40
2023-01-12T10:57:04.831Z,21.10
2023-01-12T10:59:35.683Z,30.50
2023-01-12T11:02:11.741Z,22.30
2023-01-12T11:04:43.180Z,22.50
2023-01-12T11:07:29.317Z,27.50
2023-01-12T11:10:27.937Z,20.20
2023-01-12T11:12:59.396Z,27.50
2023-01-12T11:15:29.855Z,29.80
2023-01-12T11:18:20.917Z,24.20
2023-01-12T11:20:53.723Z,26.80
2023-01-12T11:23:54.498Z,25.00
2023-01-12T11:26:28.791Z,22.60
2023-01-12T11:29:04.471Z,23.20
2023-01-12T11:31:38.971Z,26.10
2023-01-12T11:34:10.184Z,21.80
2023-01-12T11:36:52.081Z,29.50
2023-01-12T11:39:23.945Z,23.10
2023-01-12T11:42:17.800Z,16.30
2023-01-12T11:45:01.770Z,18.40
2023-01-12T11:47:44.777Z,15.70
2023-01-12T11:50:24.855Z,15.80
2023-01-12T11:52:55.150Z,21.10
2023-01-12T11:55:44.937Z,17.50
2023-01-12T11:58:28.895Z,18.50
2023-01-12T12:01:18.612Z,17.30
2023-01-12T12:04:07.182Z,18.70
2023-01-12T12:07:01.111Z,22.50
2023-01-12T12:09:42.771Z,24.00
2023-01-12T12:12:33.985Z,25.20
2023-01-12T12:15:10.889Z,19.60
2023-01-12T12:17:49.069Z,17.40
2023-01-12T12:20:45.475Z,19.90
2023-01-12T12:23:41.261Z,18.10
2023-01-12T12:26:24.955Z,23.20
2023-01-12T12:28:53.040Z,22.30
2023-01-12T12:31:29.695Z,18.80
2023-01-12T12:34:00.867Z,17.40
2023-01-12T12:36:52.084Z,17.70
2023-01-12T12:39:55.558Z,20.80
2023-01-12T12:43:10.630Z,21.40
2023-01-12T12:45:48.432Z,23.50
2023-01-12T12:48:43.052Z,17.20
2023-01-12T12:51:13.248Z,21.20
2023-01-12T12:53:49.691Z,18.20
2023-01-12T12:56:21.276Z,22.50
2023-01-12T12:58:50.461Z,17.20
2023-01-12T13:01:21.493Z,17.70
2023-01-12T13:03:53.723Z,20.20
2023-01-12T13:06:33.920Z,26.70
2023-01-12T13:09:25.345Z,19.60
2023-01-12T13:12:09.751Z,17.70
2023-01-12T13:14:40.665Z,19.40
2023-01-12T13:17:21.246Z,20.30
2023-01-12T13:20:02.115Z,19.70
2023-01-12T13:22:50.713Z,19.30
2023-01-12T13:25:26.520Z,14.80
2023-01-12T13:27:56.703Z,24.20
2023-01-12T13:30:31.176Z,19.90
2023-01-12T13:33:15.183Z,44.10
2023-01-12T13:35:47.104Z,17.30
2023-01-12T13:38:34.195Z,16.40
2023-01-12T13:41:14.605Z,20.90
2023-01-12T13:43:54.129Z,26.50
2023-01-12T13:46:29.239Z,31.00
2023-01-12T13:48:57.640Z,26.60
2023-01-12T13:51:35.027Z,19.70
2023-01-12T13:54:07.130Z,25.00
2023-01-12T13:56:35.683Z,25.80
2023-01-12T13:59:07.947Z,28.10
2023-01-12T14:01:39.423Z,17.10
2023-01-12T14:04:14.192Z,20.20
2023-01-12T14:07:13.536Z,18.60
2023-01-12T14:10:12.829Z,29.10
2023-01-12T14:13:12.131Z,21.70
2023-01-12T14:16:00.823Z,26.60
2023-01-12T14:18:45.029Z,53.00
2023-01-12T14:21:27.315Z,44.40
2023-01-12T14:24:15.392Z,42.00
2023-01-12T14:26:43.963Z,29.20
2023-01-12T14:29:13.048Z,37.20
2023-01-12T14:34:26.188Z,23.80
2023-01-12T14:36:54.975Z,23.20
2023-01-12T14:39:26.687Z,28.30
2023-01-12T14:42:14.663Z,22.00
2023-01-12T14:45:09.568Z,26.00
2023-01-12T14:47:38.908Z,27.50
2023-01-12T14:52:43.360Z,24.50
2023-01-12T14:55:15.978Z,22.90
2023-01-12T14:57:49.681Z,22.70
2023-01-12T15:00:24.934Z,23.60
2023-01-12T15:02:58.225Z,27.30
2023-01-12T15:05:28.725Z,26.20
2023-01-12T15:07:58.820Z,21.40
2023-01-12T15:10:31.870Z,24.80
2023-01-12T15:13:18.527Z,24.10
2023-01-12T15:16:05.028Z,24.10
2023-01-12T15:18:53.875Z,22.80
2023-01-12T15:21:42.974Z,23.90
2023-01-12T15:24:46.052Z,25.90
2023-01-12T15:27:20.489Z,23.30
2023-01-12T15:29:48.887Z,19.70
2023-01-12T15:32:47.248Z,28.30
2023-01-12T15:35:25.060Z,23.40
2023-01-12T15:37:55.062Z,22.90
2023-01-12T15:40:25.900Z,24.80
2023-01-12T15:42:54.712Z,29.10
2023-01-12T15:45:37.534Z,28.90
2023-01-12T15:48:07.159Z,27.00
2023-01-12T15:53:23.144Z,31.90
2023-01-12T15:55:51.153Z,24.40
2023-01-12T15:58:19.734Z,38.60
2023-01-12T16:00:48.304Z,32.10
2023-01-12T16:03:49.100Z,55.10
2023-01-12T16:06:06.705Z,48.60
2023-01-12T16:08:34.879Z,33.60
2023-01-12T16:11:12.385Z,32.70
2023-01-12T16:13:41.200Z,39.00
2023-01-12T16:16:15.956Z,36.90
2023-01-12T16:18:45.087Z,32.40
2023-01-12T16:21:19.541Z,30.50
2023-01-12T16:23:47.593Z,36.30
2023-01-12T16:26:15.845Z,38.70
2023-01-12T16:28:44.221Z,38.00
2023-01-12T16:31:14.312Z,38.70
2023-01-12T16:33:44.235Z,42.30
2023-01-12T16:36:14.401Z,46.30
2023-01-12T16:38:42.869Z,38.20
2023-01-12T16:41:19.120Z,34.60
2023-01-12T16:43:47.160Z,40.40
2023-01-12T16:46:16.443Z,35.60
2023-01-12T16:48:44.781Z,33.80
2023-01-12T16:51:15.931Z,36.90
2023-01-12T16:53:46.666Z,37.40
2023-01-12T16:56:16.613Z,32.90
2023-01-12T16:58:50.424Z,34.60
2023-01-12T17:01:21.709Z,34.20
2023-01-12T17:03:51.249Z,34.90
2023-01-12T17:08:49.534Z,32.80
2023-01-12T17:11:23.784Z,44.10
2023-01-12T17:13:55.197Z,41.30
2023-01-12T17:16:25.747Z,42.10
2023-01-12T17:18:54.471Z,41.30
2023-01-12T17:21:23.080Z,38.50
2023-01-12T17:23:52.140Z,43.50
2023-01-12T17:26:20.271Z,34.50
2023-01-12T17:28:48.597Z,61.20
2023-01-12T17:31:18.825Z,55.50
2023-01-12T17:33:47.398Z,56.20
2023-01-12T17:36:17.131Z,49.10
2023-01-12T17:38:45.281Z,32.90
2023-01-12T17:41:34.862Z,38.40
2023-01-12T17:44:05.540Z,38.80
2023-01-12T17:46:34.944Z,40.20
2023-01-12T17:49:06.559Z,32.90
2023-01-12T17:51:35.690Z,60.20
2023-01-12T17:54:06.601Z,246.30
2023-01-12T17:56:35.685Z,161.10
2023-01-12T17:59:04.978Z,103.60
2023-01-12T18:01:35.357Z,164.20
2023-01-12T18:04:04.070Z,191.30
2023-01-12T18:06:32.414Z,145.10
2023-01-12T18:09:00.778Z,70.00
2023-01-12T18:11:31.384Z,54.40
2023-01-12T18:14:01.376Z,55.20
2023-01-12T18:16:29.828Z,79.00
2023-01-12T18:18:58.532Z,64.60
2023-01-12T18:21:27.841Z,65.30
2023-01-12T18:26:36.094Z,101.60
2023-01-12T18:29:06.288Z,63.00
2023-01-12T18:31:37.577Z,52.50
2023-01-12T18:34:07.974Z,53.80
2023-01-12T18:36:41.349Z,44.90
2023-01-12T18:39:13.647Z,64.60
2023-01-12T18:42:00.575Z,198.20
2023-01-12T18:44:29.015Z,67.00
2023-01-12T18:47:16.849Z,59.20
2023-01-12T18:49:49.262Z,47.20
2023-01-12T18:52:36.656Z,52.80
2023-01-12T18:55:05.869Z,41.70
2023-01-12T19:00:23.837Z,70.40
2023-01-12T19:02:51.957Z,103.00
2023-01-12T19:05:28.792Z,172.00
2023-01-12T19:07:59.730Z,60.70
2023-01-12T19:10:29.908Z,68.90
2023-01-12T19:13:17.635Z,54.60
2023-01-12T19:16:04.447Z,44.70
2023-01-12T19:18:36.876Z,34.90
2023-01-12T19:21:27.596Z,37.70
2023-01-12T19:24:14.836Z,34.50
2023-01-12T19:27:01.516Z,35.30
2023-01-12T19:29:29.824Z,34.20
2023-01-12T19:31:57.831Z,44.50
2023-01-12T19:34:26.180Z,36.40
2023-01-12T19:36:54.240Z,38.40
2023-01-12T19:39:34.499Z,44.90
2023-01-12T19:42:21.305Z,97.40
2023-01-12T19:44:49.379Z,44.10
2023-01-12T19:47:17.639Z,47.30
2023-01-12T19:49:45.820Z,60.90
2023-01-12T19:52:13.912Z,51.70
2023-01-12T19:54:42.371Z,54.40
2023-01-12T19:57:10.611Z,46.00
2023-01-12T19:59:38.649Z,73.10
2023-01-12T20:02:06.857Z,51.60
2023-01-12T20:04:34.935Z,89.90
2023-01-12T20:07:03.335Z,102.80
2023-01-12T20:09:31.401Z,99.30
2023-01-12T20:11:59.434Z,60.00
2023-01-12T20:14:27.756Z,69.40
2023-01-12T20:16:55.782Z,70.60
2023-01-12T20:19:24.004Z,74.30
2023-01-12T20:21:52.146Z,71.00
2023-01-12T20:24:20.439Z,59.40
2023-01-12T20:26:48.933Z,66.30
2023-01-12T20:29:17.055Z,69.40
2023-01-12T20:31:45.900Z,68.80
2023-01-12T20:34:14.272Z,63.80
2023-01-12T20:36:45.962Z,56.40
2023-01-12T20:39:16.425Z,51.00
2023-01-12T20:41:44.842Z,69.40
2023-01-12T20:44:17.363Z,68.10
2023-01-12T20:46:45.464Z,71.80
2023-01-12T20:49:13.742Z,173.70
2023-01-12T20:51:42.121Z,112.70
2023-01-12T20:54:10.408Z,125.00
2023-01-12T20:56:38.569Z,62.90
2023-01-12T20:59:06.584Z,72.70
2023-01-12T21:01:35.823Z,79.30
2023-01-12T21:04:04.765Z,81.20
2023-01-12T21:06:33.106Z,57.40
2023-01-12T21:09:01.323Z,49.40
2023-01-12T21:11:29.356Z,38.20
2023-01-12T21:13:57.628Z,39.10
2023-01-12T21:16:26.247Z,32.90
2023-01-12T21:18:54.700Z,39.60
2023-01-12T21:21:22.889Z,37.50
2023-01-12T21:23:51.133Z,38.60
2023-01-12T21:26:19.257Z,35.90
2023-01-12T21:28:47.470Z,35.40
2023-01-12T21:31:15.748Z,31.80
2023-01-12T21:33:44.823Z,36.80
2023-01-12T21:36:14.091Z,33.70
2023-01-12T21:41:11.722Z,37.90
2023-01-12T21:43:39.894Z,50.20
2023-01-12T21:46:10.594Z,51.40
2023-01-12T21:48:38.900Z,46.50
2023-01-12T21:51:12.663Z,51.00
2023-01-12T21:53:42.145Z,55.00
2023-01-12T21:56:12.535Z,50.20
2023-01-12T21:58:40.910Z,55.60
2023-01-12T22:01:14.464Z,46.60
2023-01-12T22:03:42.983Z,42.30
2023-01-12T22:06:13.148Z,35.40
2023-01-12T22:08:42.821Z,26.00
2023-01-12T22:11:14.789Z,26.70
2023-01-12T22:13:46.467Z,31.20
2023-01-12T22:16:16.439Z,30.80
2023-01-12T22:18:49.044Z,39.50
2023-01-12T22:21:18.837Z,38.90
2023-01-12T22:23:47.530Z,44.90
2023-01-12T22:26:16.930Z,46.80
2023-01-12T22:28:47.785Z,40.40
2023-01-12T22:31:22.661Z,36.60
2023-01-12T22:34:07.202Z,36.70
2023-01-12T22:36:43.443Z,34.50
2023-01-12T22:39:12.738Z,37.50
2023-01-12T22:44:09.048Z,43.20
2023-01-12T22:46:37.141Z,38.20
2023-01-12T22:49:05.186Z,39.80
2023-01-12T22:51:33.278Z,37.90
2023-01-12T22:54:01.319Z,31.10
2023-01-12T22:56:29.814Z,35.00
2023-01-12T22:58:57.867Z,35.10
2023-01-12T23:01:26.563Z,38.30
2023-01-12T23:03:56.703Z,40.70
2023-01-12T23:06:25.991Z,54.60
2023-01-12T23:11:24.527Z,63.50
2023-01-12T23:13:54.886Z,66.40
2023-01-12T23:16:23.593Z,82.90
2023-01-12T23:18:55.495Z,66.30
2023-01-12T23:21:26.529Z,67.00
2023-01-12T23:23:57.276Z,68.00
2023-01-12T23:26:31.159Z,71.10
2023-01-12T23:29:00.962Z,70.30
2023-01-12T23:31:31.435Z,73.50
2023-01-12T23:34:00.479Z,88.30
2023-01-12T23:36:30.073Z,85.40
2023-01-12T23:39:01.809Z,76.60
2023-01-12T23:41:32.407Z,74.40
2023-01-12T23:44:02.880Z,74.00
2023-01-12T23:46:35.410Z,73.00
2023-01-12T23:49:04.584Z,70.70
2023-01-12T23:51:33.271Z,70.90
2023-01-12T23:54:02.276Z,62.90
